Time;durP1;ratioP1;P1;durP2;ratioP2;P2;SDS_P1;SDS_P2;PMS_P1;PMS_P2;Temp;Humidity;BMP_temperature;BMP_pressure;BME280_temperature;BME280_humidity;BME280_pressure;Samples;Min_cycle;Max_cycle;Signal;HPM_P1;HPM_P2
2024/04/01 00:00:11;;;;;;;19.82;3.45;;;;;;;14.52;62.84;99833.20;1756422;80;21094;-78
2024/04/01 00:02:43;;;;;;;17.73;3.10;;;;;;;14.48;62.92;99836.13;1756550;80;21004;-76
2024/04/01 00:05:11;;;;;;;11.88;3.25;;;;;;;14.42;63.14;99823.30;1756557;82;21080;-77
2024/04/01 00:07:41;;;;;;;12.35;3.30;;;;;;;14.40;63.35;99824.58;1756532;80;21020;-77
2024/04/01 00:10:09;;;;;;;12.73;3.62;;;;;;;14.37;63.56;99814.02;1756570;80;21001;-77
2024/04/01 00:12:38;;;;;;;15.35;3.87;;;;;;;14.32;63.70;99813.89;1755226;82;21076;-77
2024/04/01 00:15:06;;;;;;;20.65;3.17;;;;;;;14.27;63.86;99811.28;1752076;80;21512;-77
2024/04/01 00:17:34;;;;;;;18.87;3.87;;;;;;;14.24;64.06;99807.62;1756444;80;21222;-77
2024/04/01 00:20:04;;;;;;;15.65;3.35;;;;;;;14.21;64.26;99820.48;1756471;82;21079;-78
2024/04/01 00:22:32;;;;;;;18.48;3.65;;;;;;;14.19;64.50;99817.13;1756446;80;21163;-78
2024/04/01 00:25:00;;;;;;;21.62;3.62;;;;;;;14.18;64.62;99808.56;1756765;80;21060;-78
2024/04/01 00:27:29;;;;;;;14.05;3.05;;;;;;;14.15;64.76;99804.06;1756540;80;21028;-77
2024/04/01 00:29:57;;;;;;;14.45;2.85;;;;;;;14.13;64.86;99800.16;1756497;82;21064;-78
2024/04/01 00:32:26;;;;;;;17.48;3.58;;;;;;;14.09;65.04;99794.83;1756390;82;21072;-76
2024/04/01 00:34:54;;;;;;;23.87;3.75;;;;;;;14.05;65.21;99794.98;1756349;82;21614;-76
2024/04/01 00:37:25;;;;;;;17.30;3.65;;;;;;;14.03;65.38;99798.52;1755384;80;21028;-79
2024/04/01 00:39:53;;;;;;;16.35;3.15;;;;;;;14.01;65.52;99791.03;1756397;82;21107;-77
2024/04/01 00:42:23;;;;;;;14.55;3.20;;;;;;;14.00;65.65;99781.09;1756417;80;21095;-77
2024/04/01 00:44:51;;;;;;;19.00;3.62;;;;;;;13.99;65.81;99784.08;1756399;82;21065;-78
2024/04/01 00:47:20;;;;;;;20.77;3.67;;;;;;;13.96;65.92;99790.89;1756642;80;21071;-78
2024/04/01 00:49:48;;;;;;;19.23;3.40;;;;;;;13.93;66.05;99790.83;1756561;82;21013;-77
2024/04/01 00:52:17;;;;;;;14.45;3.15;;;;;;;13.92;66.15;99784.17;1756439;82;21530;-77
2024/04/01 00:54:46;;;;;;;18.65;3.60;;;;;;;13.91;66.23;99790.76;1756574;82;21028;-77
2024/04/01 00:57:14;;;;;;;14.20;3.40;;;;;;;13.88;66.40;99783.80;1756731;80;21091;-78
2024/04/01 00:59:43;;;;;;;18.90;3.65;;;;;;;13.86;66.49;99782.36;1756705;80;21207;-78
2024/04/01 01:02:15;;;;;;;15.65;3.15;;;;;;;13.82;66.69;99781.98;1756685;80;21036;-77
2024/04/01 01:04:43;;;;;;;17.65;3.12;;;;;;;13.78;66.80;99765.63;1756504;80;21075;-77
2024/04/01 01:07:12;;;;;;;16.52;3.25;;;;;;;13.75;66.97;99757.00;1756517;80;21068;-78
2024/04/01 01:09:40;;;;;;;13.98;3.95;;;;;;;13.71;67.21;99757.17;1756653;81;21048;-78
2024/04/01 01:12:08;;;;;;;15.48;3.33;;;;;;;13.68;67.39;99746.62;1756443;82;21534;-77
2024/04/01 01:14:37;;;;;;;13.38;3.47;;;;;;;13.64;67.57;99746.22;1756488;82;21071;-77
2024/04/01 01:17:05;;;;;;;13.65;2.98;;;;;;;13.61;67.75;99754.41;1751674;80;21095;-77
2024/04/01 01:19:33;;;;;;;19.27;3.80;;;;;;;13.58;67.88;99746.62;1751108;81;21045;-77
2024/04/01 01:22:06;;;;;;;16.77;3.35;;;;;;;13.56;67.99;99746.01;1750978;82;21021;-77
2024/04/01 01:24:34;;;;;;;18.60;3.60;;;;;;;13.53;68.21;99750.60;1750774;82;21037;-78
2024/04/01 01:27:03;;;;;;;22.02;4.03;;;;;;;13.48;68.40;99735.33;1754629;80;21068;-77
2024/04/01 01:29:32;;;;;;;21.35;3.60;;;;;;;13.45;68.57;99739.08;1750982;81;21009;-78
2024/04/01 01:32:00;;;;;;;17.80;3.45;;;;;;;13.41;68.74;99731.83;1751145;82;21506;-77
2024/04/01 01:34:29;;;;;;;12.95;3.67;;;;;;;13.38;68.94;99717.70;1750883;80;21016;-77
2024/04/01 01:36:58;;;;;;;18.25;3.55;;;;;;;13.35;69.08;99716.78;1750911;82;21032;-78
2024/04/01 01:39:26;;;;;;;21.27;3.47;;;;;;;13.32;69.28;99728.55;1751078;82;21021;-77
2024/04/01 01:41:54;;;;;;;17.17;3.50;;;;;;;13.28;69.34;99723.22;1750853;82;21444;-77
2024/04/01 01:44:22;;;;;;;21.35;3.52;;;;;;;13.26;69.52;99732.77;1750845;82;21044;-76
2024/04/01 01:46:51;;;;;;;21.48;3.55;;;;;;;13.24;69.70;99733.00;1751019;80;21085;-78
2024/04/01 01:49:19;;;;;;;16.12;3.77;;;;;;;13.22;69.85;99738.44;1750900;82;20997;-77
2024/04/01 01:51:47;;;;;;;17.98;3.50;;;;;;;13.17;70.06;99746.53;1750857;81;21524;-79
2024/04/01 01:54:15;;;;;;;14.93;3.25;;;;;;;13.16;70.23;99761.33;1750769;80;21148;-79
2024/04/01 01:56:44;;;;;;;19.75;3.62;;;;;;;13.14;70.36;99752.47;1751043;80;21437;-78
2024/04/01 01:59:12;;;;;;;23.75;3.70;;;;;;;13.14;70.53;99734.59;1750904;80;21029;-77
2024/04/01 02:01:40;;;;;;;16.27;3.75;;;;;;;13.11;70.59;99738.64;1750854;82;21492;-78
2024/04/01 02:04:09;;;;;;;22.82;3.65;;;;;;;13.07;70.73;99746.20;1751211;82;21421;-79
2024/04/01 02:06:37;;;;;;;16.25;3.75;;;;;;;13.06;70.88;99736.28;1750974;82;21107;-77
2024/04/01 02:09:08;;;;;;;13.55;3.55;;;;;;;13.07;71.02;99740.70;1750863;82;21538;-77
2024/04/01 02:11:36;;;;;;;19.05;3.72;;;;;;;13.07;71.01;99729.17;1750935;82;21056;-78
2024/04/01 02:14:04;;;;;;;18.55;3.60;;;;;;;13.07;71.07;99732.45;1750825;80;21068;-78
2024/04/01 02:16:32;;;;;;;16.10;3.67;;;;;;;13.04;71.17;99732.92;1751813;81;21056;-77
2024/04/01 02:19:01;;;;;;;18.90;3.85;;;;;;;12.99;71.28;99728.91;1727068;82;21024;-75
2024/04/01 02:21:29;;;;;;;17.65;3.52;;;;;;;12.95;71.45;99740.07;1756333;80;21056;-79
2024/04/01 02:23:57;;;;;;;14.30;3.60;;;;;;;12.93;71.57;99754.58;1756449;80;21047;-78
2024/04/01 02:26:26;;;;;;;24.50;3.70;;;;;;;12.92;71.69;99760.31;1756403;80;21075;-77
2024/04/01 02:28:54;;;;;;;16.65;3.45;;;;;;;12.88;71.69;99744.80;1756480;80;21441;-78
2024/04/01 02:31:22;;;;;;;20.25;3.95;;;;;;;12.84;71.88;99746.33;1756505;82;20984;-76
2024/04/01 02:33:51;;;;;;;17.20;3.58;;;;;;;12.81;72.13;99749.53;1756551;80;21056;-77
2024/04/01 02:36:19;;;;;;;19.10;3.60;;;;;;;12.79;72.25;99754.95;1756448;80;21067;-78
2024/04/01 02:38:48;;;;;;;20.45;3.90;;;;;;;12.80;72.40;99752.52;1756467;80;21048;-77
2024/04/01 02:41:17;;;;;;;20.25;3.72;;;;;;;12.78;72.46;99746.41;1756468;80;21017;-77
2024/04/01 02:43:45;;;;;;;19.57;3.30;;;;;;;12.76;72.57;99744.41;1756680;82;21032;-77
2024/04/01 02:46:14;;;;;;;14.63;3.52;;;;;;;12.70;72.74;99733.27;1756403;82;21060;-78
2024/04/01 02:48:43;;;;;;;25.30;3.92;;;;;;;12.71;72.84;99738.23;1756518;80;21095;-77
2024/04/01 02:51:12;;;;;;;17.73;4.12;;;;;;;12.70;72.91;99732.42;1756698;82;21016;-77
2024/04/01 02:53:47;;;;;;;20.57;3.92;;;;;;;12.69;72.98;99729.38;1751787;82;21448;-78
2024/04/01 02:56:11;;;;;;;24.15;3.62;;;;;;;12.69;73.04;99723.88;1755924;82;21064;-77
2024/04/01 02:58:42;;;;;;;13.85;4.10;;;;;;;12.71;72.99;99736.86;1756593;82;21087;-78
2024/04/01 03:01:12;;;;;;;17.57;3.80;;;;;;;12.69;73.15;99728.00;1756484;82;21044;-77
2024/04/01 03:03:40;;;;;;;17.65;4.22;;;;;;;12.68;73.17;99726.31;1756415;82;21068;-78
2024/04/01 03:06:08;;;;;;;21.87;4.25;;;;;;;12.65;73.21;99729.52;1756377;80;21032;-77
2024/04/01 03:08:38;;;;;;;16.17;3.85;;;;;;;12.62;73.29;99732.72;1756457;82;21091;-78
2024/04/01 03:11:07;;;;;;;17.60;3.08;;;;;;;12.58;73.41;99731.50;1756470;80;21056;-77
2024/04/01 03:13:35;;;;;;;13.35;3.85;;;;;;;12.54;73.55;99734.39;1756583;80;21080;-77
2024/04/01 03:16:05;;;;;;;19.42;3.98;;;;;;;12.50;73.67;99740.03;1756817;80;21060;-77
2024/04/01 03:18:34;;;;;;;20.52;4.03;;;;;;;12.48;73.83;99738.05;1756373;80;21100;-78
2024/04/01 03:21:02;;;;;;;20.77;3.85;;;;;;;12.51;74.03;99736.22;1756446;82;21087;-77
2024/04/01 03:23:31;;;;;;;12.68;3.50;;;;;;;12.50;74.00;99740.88;1756629;82;21011;-77
2024/04/01 03:25:59;;;;;;;17.60;3.67;;;;;;;12.48;74.08;99742.17;1756699;80;21064;-77
2024/04/01 03:28:28;;;;;;;19.10;4.10;;;;;;;12.48;74.16;99742.17;1756666;80;21064;-77
2024/04/01 03:30:59;;;;;;;18.25;3.50;;;;;;;12.46;74.23;99733.31;1756609;80;21060;-77
2024/04/01 03:33:27;;;;;;;18.23;3.65;;;;;;;12.44;74.22;99739.56;1756353;82;21060;-77
2024/04/01 03:35:56;;;;;;;15.25;4.10;;;;;;;12.41;74.35;99734.52;1756463;82;21060;-76
2024/04/01 03:38:24;;;;;;;19.23;4.50;;;;;;;12.40;74.48;99738.34;1756446;82;21024;-77
2024/04/01 03:40:53;;;;;;;22.42;3.98;;;;;;;12.36;74.63;99729.17;1756689;82;21032;-78
2024/04/01 03:43:21;;;;;;;17.98;3.60;;;;;;;12.33;74.68;99730.12;1756571;82;21004;-77
2024/04/01 03:45:59;;;;;;;18.73;5.03;;;;;;;12.31;74.76;99733.09;1756770;80;21020;-76
2024/04/01 03:48:28;;;;;;;24.07;5.80;;;;;;;12.29;74.95;99734.39;1751773;82;21092;-76
2024/04/01 03:50:56;;;;;;;22.48;6.10;;;;;;;12.29;75.13;99733.02;1726957;82;21119;-77
2024/04/01 03:53:24;;;;;;;19.80;4.83;;;;;;;12.28;75.11;99731.34;1756552;80;21083;-78
2024/04/01 03:55:53;;;;;;;17.67;4.03;;;;;;;12.27;75.25;99734.61;1756435;80;21099;-78
2024/04/01 03:58:21;;;;;;;20.05;4.37;;;;;;;12.27;75.27;99736.52;1756498;80;21144;-77
2024/04/01 04:00:50;;;;;;;15.50;3.85;;;;;;;12.28;75.35;99732.17;1756358;80;21476;-76
2024/04/01 04:03:18;;;;;;;20.35;3.92;;;;;;;12.27;75.35;99731.87;1751667;82;21044;-78
2024/04/01 04:05:47;;;;;;;16.77;4.35;;;;;;;12.30;75.27;99730.58;1756479;80;21087;-78
2024/04/01 04:08:15;;;;;;;20.55;4.17;;;;;;;12.29;75.27;99723.41;1756536;80;21159;-78
2024/04/01 04:10:46;;;;;;;16.65;3.70;;;;;;;12.29;75.30;99730.27;1756436;80;21024;-79
2024/04/01 04:13:15;;;;;;;22.67;5.03;;;;;;;12.28;75.39;99737.67;1751677;80;21077;-76
2024/04/01 04:15:43;;;;;;;20.77;4.10;;;;;;;12.26;75.39;99737.05;1756393;82;21492;-78
2024/04/01 04:18:11;;;;;;;20.77;4.53;;;;;;;12.27;75.45;99735.15;1752947;80;21061;-77
2024/04/01 04:20:40;;;;;;;18.45;4.25;;;;;;;12.27;75.51;99735.15;1751029;80;21045;-78
2024/04/01 04:23:08;;;;;;;20.45;4.75;;;;;;;12.30;75.53;99745.69;1750869;80;21045;-77
2024/04/01 04:25:37;;;;;;;23.02;4.92;;;;;;;12.30;75.47;99734.16;1750886;82;21044;-78
2024/04/01 04:28:05;;;;;;;16.60;3.92;;;;;;;12.31;75.46;99737.22;1751252;82;21072;-77
2024/04/01 04:30:33;;;;;;;25.00;4.92;;;;;;;12.33;75.41;99739.74;1751099;82;21065;-77
2024/04/01 04:33:02;;;;;;;20.45;4.33;;;;;;;12.32;75.32;99729.28;1750932;82;21017;-78
2024/04/01 04:35:30;;;;;;;24.47;4.62;;;;;;;12.36;75.40;99742.91;1751030;80;21068;-76
2024/04/01 04:37:59;;;;;;;22.98;4.25;;;;;;;12.35;75.28;99733.48;1751172;82;20989;-77
2024/04/01 04:40:29;;;;;;;17.92;3.85;;;;;;;12.34;75.27;99736.77;1729830;82;21064;-77
2024/04/01 04:42:58;;;;;;;24.20;5.08;;;;;;;12.33;75.40;99734.25;1750962;80;21100;-78
2024/04/01 04:45:26;;;;;;;23.30;4.70;;;;;;;12.32;75.52;99736.16;1750897;80;21124;-75
2024/04/01 04:47:54;;;;;;;20.48;4.90;;;;;;;12.35;75.57;99743.98;1730079;82;21087;-77
2024/04/01 04:50:22;;;;;;;19.55;4.85;;;;;;;12.41;75.50;99747.73;1751125;80;21196;-78
2024/04/01 04:52:51;;;;;;;21.52;5.10;;;;;;;12.44;75.39;99746.44;1751293;82;21487;-77
2024/04/01 04:55:22;;;;;;;19.37;4.62;;;;;;;12.48;75.30;99739.42;1751260;82;21032;-78
2024/04/01 04:57:49;;;;;;;18.57;4.55;;;;;;;12.51;75.08;99739.81;1751041;82;21056;-77
2024/04/01 05:00:23;;;;;;;28.42;5.20;;;;;;;12.53;75.01;99739.58;1750870;81;21511;-79
2024/04/01 05:02:52;;;;;;;15.55;4.40;;;;;;;12.53;74.92;99740.95;1750860;82;21463;-78
2024/04/01 05:05:20;;;;;;;18.50;4.62;;;;;;;12.55;75.05;99727.83;1750867;80;21482;-76
2024/04/01 05:07:49;;;;;;;21.35;4.80;;;;;;;12.60;75.00;99725.24;1751111;81;21032;-78
2024/04/01 05:10:18;;;;;;;19.80;4.10;;;;;;;12.61;74.75;99720.89;1730151;82;21072;-77
2024/04/01 05:12:46;;;;;;;26.37;4.67;;;;;;;12.61;74.82;99717.30;1751459;80;21479;-77
2024/04/01 05:15:15;;;;;;;22.32;5.00;;;;;;;12.64;74.74;99719.06;1751153;80;21024;-78
2024/04/01 05:17:43;;;;;;;25.08;5.35;;;;;;;12.68;74.69;99716.70;1750824;80;21040;-79
2024/04/01 05:20:13;;;;;;;22.60;4.75;;;;;;;12.72;74.48;99730.29;1751085;82;21507;-76
2024/04/01 05:22:41;;;;;;;26.93;5.17;;;;;;;12.73;74.35;99728.38;1751052;80;21013;-76
2024/04/01 05:25:10;;;;;;;26.40;5.15;;;;;;;12.76;74.25;99723.27;1730096;82;21064;-76
2024/04/01 05:27:38;;;;;;;22.17;5.08;;;;;;;12.77;74.08;99726.32;1750796;82;21064;-77
2024/04/01 05:30:14;;;;;;;25.27;5.00;;;;;;;12.80;74.25;99727.23;1751261;80;21457;-76
2024/04/01 05:32:38;;;;;;;19.98;4.97;;;;;;;12.84;74.23;99732.58;1750005;80;21068;-77
2024/04/01 05:35:07;;;;;;;20.40;4.78;;;;;;;12.87;74.02;99726.63;1751083;82;21057;-77
2024/04/01 05:37:36;;;;;;;20.32;4.58;;;;;;;12.87;73.97;99736.25;1750947;82;21449;-77
2024/04/01 05:40:06;;;;;;;19.50;4.72;;;;;;;12.89;73.91;99731.90;1751045;82;21028;-78
2024/04/01 05:42:34;;;;;;;24.98;4.67;;;;;;;12.92;74.05;99732.81;1751047;82;21036;-77
2024/04/01 05:45:03;;;;;;;20.85;4.60;;;;;;;12.98;73.91;99728.61;1751274;82;21032;-77
2024/04/01 05:47:33;;;;;;;24.63;4.65;;;;;;;13.05;73.75;99725.81;1750808;82;21052;-77
2024/04/01 05:50:03;;;;;;;26.42;6.05;;;;;;;13.11;73.58;99724.89;1751067;80;21060;-77
2024/04/01 05:52:32;;;;;;;20.23;4.67;;;;;;;13.15;73.36;99716.48;1750761;81;21033;-78
2024/04/01 05:55:02;;;;;;;21.17;6.12;;;;;;;13.19;73.17;99708.64;1750981;81;21029;-78
2024/04/01 05:57:31;;;;;;;21.65;5.25;;;;;;;13.25;73.14;99713.21;1750853;80;21021;-78
2024/04/01 06:00:00;;;;;;;24.25;5.20;;;;;;;13.30;72.84;99716.95;1750857;80;21480;-78
2024/04/01 06:02:28;;;;;;;21.50;5.55;;;;;;;13.35;72.77;99710.75;1751025;82;21041;-77
2024/04/01 06:04:57;;;;;;;22.22;4.37;;;;;;;13.42;72.65;99710.66;1729807;82;21064;-77
2024/04/01 06:07:27;;;;;;;22.20;4.80;;;;;;;13.50;72.46;99707.03;1751031;82;21025;-77
2024/04/01 06:09:59;;;;;;;23.83;5.30;;;;;;;13.58;72.19;99730.09;1751144;82;21028;-77
2024/04/01 06:12:28;;;;;;;25.50;6.00;;;;;;;13.66;71.90;99711.61;1750865;80;21068;-78
2024/04/01 06:14:56;;;;;;;25.30;6.03;;;;;;;13.71;71.72;99715.87;1750891;80;21024;-77
2024/04/01 06:17:24;;;;;;;21.45;4.85;;;;;;;13.79;71.54;99718.28;1750863;80;21021;-77
2024/04/01 06:19:53;;;;;;;24.32;5.08;;;;;;;13.90;71.38;99727.11;1750660;80;21353;-76
2024/04/01 06:22:21;;;;;;;31.60;6.15;;;;;;;14.00;71.13;99698.99;1750710;80;21047;-78
2024/04/01 06:24:50;;;;;;;26.55;6.20;;;;;;;14.11;70.55;99700.38;1750987;82;21013;-78
2024/04/01 06:27:18;;;;;;;19.85;4.85;;;;;;;14.20;70.14;99707.22;1750967;80;21071;-77
2024/04/01 06:29:47;;;;;;;23.90;5.15;;;;;;;14.27;69.67;99717.59;1750726;80;21498;-77
2024/04/01 06:32:15;;;;;;;28.57;5.78;;;;;;;14.33;69.43;99728.77;1750689;80;21044;-77
2024/04/01 06:34:47;;;;;;;25.65;4.90;;;;;;;14.38;69.28;99726.13;1750826;80;21025;-79
2024/04/01 06:37:15;;;;;;;17.87;5.70;;;;;;;14.44;69.07;99723.83;1754356;80;21021;-80
2024/04/01 06:39:44;;;;;;;28.05;5.33;;;;;;;14.49;69.01;99722.57;1730082;82;21044;-78
2024/04/01 06:42:12;;;;;;;18.75;4.95;;;;;;;14.55;68.70;99719.69;1751849;80;21048;-76
2024/04/01 06:44:41;;;;;;;20.57;4.97;;;;;;;14.59;68.37;99726.41;1750815;80;21053;-77
2024/04/01 06:47:10;;;;;;;24.07;4.60;;;;;;;14.66;68.27;99725.44;1730126;80;21052;-78
2024/04/01 06:49:39;;;;;;;20.08;5.58;;;;;;;14.70;67.94;99720.58;1754563;82;21061;-77
2024/04/01 06:52:08;;;;;;;21.60;5.00;;;;;;;14.77;67.81;99718.53;1750873;82;21064;-77
2024/04/01 06:54:37;;;;;;;28.77;5.00;;;;;;;14.84;67.55;99719.78;1750920;80;21088;-79
2024/04/01 06:57:08;;;;;;;27.65;4.33;;;;;;;14.90;67.42;99725.16;1750989;82;21053;-76
2024/04/01 06:59:36;;;;;;;32.65;6.15;;;;;;;14.98;67.30;99725.91;1750957;80;21073;-77
2024/04/01 07:02:04;;;;;;;19.55;5.60;;;;;;;15.05;67.03;99738.48;1750986;82;21068;-77
2024/04/01 07:04:33;;;;;;;27.82;5.45;;;;;;;15.13;66.85;99735.34;1750962;80;21024;-77
2024/04/01 07:07:01;;;;;;;26.25;5.95;;;;;;;15.23;66.76;99736.09;1750768;80;21029;-77
2024/04/01 07:09:29;;;;;;;34.03;7.15;;;;;;;15.34;66.60;99733.84;1750936;82;21056;-77
2024/04/01 07:11:58;;;;;;;29.82;6.60;;;;;;;15.45;66.27;99735.72;1750956;80;21072;-81
2024/04/01 07:14:27;;;;;;;24.87;7.08;;;;;;;15.58;65.95;99743.45;1750747;80;21020;-81
2024/04/01 07:16:56;;;;;;;24.32;6.33;;;;;;;15.70;65.61;99736.82;1751257;82;21032;-82
2024/04/01 07:19:24;;;;;;;30.77;6.08;;;;;;;15.83;65.04;99742.58;1728392;82;21116;-80
2024/04/01 07:21:53;;;;;;;26.60;6.12;;;;;;;15.96;64.71;99739.50;1756374;82;21468;-79
2024/04/01 07:24:22;;;;;;;23.30;5.78;;;;;;;16.08;64.36;99742.20;1727193;80;21111;-78
2024/04/01 07:26:50;;;;;;;34.05;6.10;;;;;;;16.21;63.91;99731.36;1756501;81;21083;-78
2024/04/01 07:29:19;;;;;;;26.62;7.00;;;;;;;16.34;63.59;99732.44;1756433;82;21072;-78
2024/04/01 07:31:50;;;;;;;30.75;8.00;;;;;;;16.44;63.00;99734.81;1756630;82;20996;-78
2024/04/01 07:34:19;;;;;;;23.12;5.67;;;;;;;16.54;62.43;99734.14;1756356;80;21443;-77
2024/04/01 07:36:47;;;;;;;25.77;5.85;;;;;;;16.62;62.04;99726.80;1756346;82;21099;-80
2024/04/01 07:39:16;;;;;;;26.17;6.78;;;;;;;16.69;61.62;99727.48;1751680;80;21429;-79
2024/04/01 07:41:45;;;;;;;29.98;8.10;;;;;;;16.80;61.59;99727.08;1727210;82;21112;-79
2024/04/01 07:44:13;;;;;;;38.42;13.45;;;;;;;16.90;61.11;99727.77;1756414;80;21546;-78
2024/04/01 07:46:42;;;;;;;36.88;9.80;;;;;;;17.01;60.61;99726.30;1756407;82;21032;-78
2024/04/01 07:49:12;;;;;;;36.77;11.80;;;;;;;17.11;60.34;99730.59;1756412;82;21016;-78
2024/04/01 07:51:41;;;;;;;24.87;8.25;;;;;;;17.23;60.09;99723.54;1756444;82;21004;-77
2024/04/01 07:54:09;;;;;;;33.08;10.65;;;;;;;17.34;59.58;99720.34;1756293;82;21075;-76
2024/04/01 07:56:38;;;;;;;35.43;9.20;;;;;;;17.47;59.36;99724.10;1756532;80;21061;-81
2024/04/01 07:59:07;;;;;;;34.33;7.25;;;;;;;17.68;59.08;99722.45;1751064;81;21066;-79
2024/04/01 08:01:36;;;;;;;27.50;7.12;;;;;;;17.98;58.43;99727.47;1742872;81;21023;-77
2024/04/01 08:04:05;;;;;;;30.40;6.62;;;;;;;18.27;58.09;99723.88;1723277;83;22299;-77
2024/04/01 08:06:34;;;;;;;31.75;6.20;;;;;;;18.59;57.32;99727.45;1722272;82;21035;-79
2024/04/01 08:09:02;;;;;;;33.73;8.65;;;;;;;18.93;56.48;99718.84;1722101;83;21103;-81
2024/04/01 08:11:32;;;;;;;34.43;8.55;;;;;;;19.28;54.98;99733.45;1721328;82;21030;-81
2024/04/01 08:14:00;;;;;;;33.98;7.58;;;;;;;19.55;53.74;99727.78;1756787;81;21446;-83
2024/04/01 08:16:29;;;;;;;30.97;8.28;;;;;;;19.77;53.20;99727.00;1756446;80;21017;-81
2024/04/01 08:18:57;;;;;;;31.35;9.88;;;;;;;20.07;52.34;99718.42;1743663;80;21003;-83
2024/04/01 08:21:27;;;;;;;36.98;7.80;;;;;;;20.34;51.83;99717.63;1709278;84;21111;-81
2024/04/01 08:23:56;;;;;;;26.55;6.72;;;;;;;20.64;50.74;99721.53;1724644;83;21059;-82
2024/04/01 08:26:24;;;;;;;40.50;9.85;;;;;;;20.88;50.13;99718.45;1724689;83;21048;-80
2024/04/01 08:28:53;;;;;;;32.35;8.65;;;;;;;21.10;49.57;99709.75;1724337;83;21075;-81
2024/04/01 08:31:21;;;;;;;29.80;7.00;;;;;;;21.28;48.74;99720.86;1724447;83;20992;-77
2024/04/01 08:33:50;;;;;;;29.80;6.35;;;;;;;21.39;48.50;99726.11;1724511;83;21040;-82
2024/04/01 08:36:19;;;;;;;27.50;7.03;;;;;;;21.55;48.06;99721.33;1726497;83;21502;-82
2024/04/01 08:38:47;;;;;;;29.60;6.15;;;;;;;21.68;47.58;99726.83;1729124;83;21085;-82
2024/04/01 08:41:22;;;;;;;25.02;6.85;;;;;;;;;;1729079;83;21023;-78
2024/04/01 08:44:15;;;;;;;30.57;7.05;;;;;;;21.91;46.70;99723.34;1724359;82;21040;-82
2024/04/01 08:46:47;;;;;;;31.27;7.83;;;;;;;22.04;46.37;99733.87;1709432;84;21079;-82
2024/04/01 08:49:15;;;;;;;34.08;7.67;;;;;;;22.25;46.28;99727.62;1707050;84;21024;-80
2024/04/01 08:51:44;;;;;;;42.85;7.90;;;;;;;22.40;45.54;99726.09;1709514;84;21039;-80
2024/04/01 08:54:12;;;;;;;36.75;7.28;;;;;;;22.54;45.17;99718.44;1688218;84;21499;-82
2024/04/01 08:56:41;;;;;;;32.90;7.28;;;;;;;22.63;44.75;99716.67;1709480;84;21079;-74
2024/04/01 08:59:11;;;;;;;31.12;7.80;;;;;;;22.67;45.12;99720.55;1709373;84;21087;-76
2024/04/01 09:01:39;;;;;;;29.98;6.95;;;;;;;22.72;44.75;99715.73;1689241;84;21561;-75
2024/04/01 09:04:09;;;;;;;56.08;20.57;;;;;;;22.75;44.71;99703.14;1709198;84;21071;-79
2024/04/01 09:06:38;;;;;;;35.23;8.80;;;;;;;22.80;44.20;99701.76;1709572;84;21059;-81
2024/04/01 09:09:08;;;;;;;30.40;6.40;;;;;;;22.83;44.14;99700.34;1709698;84;21003;-80
2024/04/01 09:11:37;;;;;;;30.45;7.10;;;;;;;22.80;43.83;99693.91;1701661;83;21060;-82
2024/04/01 09:14:06;;;;;;;38.25;8.10;;;;;;;22.72;43.51;99694.80;1733542;82;21023;-83
2024/04/01 09:16:37;;;;;;;31.30;6.65;;;;;;;22.61;43.65;99689.61;1720104;82;21066;-81
2024/04/01 09:19:09;;;;;;;23.00;6.42;;;;;;;22.56;43.94;99679.89;1715391;83;21051;-79
2024/04/01 09:21:38;;;;;;;33.67;6.60;;;;;;;22.54;44.24;99677.95;1707096;84;21495;-79
2024/04/01 09:24:06;;;;;;;34.88;7.83;;;;;;;22.54;44.18;99675.99;1707211;83;21509;-79
2024/04/01 09:26:35;;;;;;;34.10;6.87;;;;;;;22.54;44.25;99674.59;1707146;83;21044;-81
2024/04/01 09:29:04;;;;;;;26.55;6.60;;;;;;;22.54;43.76;99670.97;1707310;84;21067;-80
2024/04/01 09:31:35;;;;;;;25.12;6.40;;;;;;;22.54;43.62;99671.80;1707104;83;21625;-79
2024/04/01 09:34:03;;;;;;;29.80;6.60;;;;;;;22.53;43.25;99674.89;1714738;82;21059;-79
2024/04/01 09:36:32;;;;;;;39.78;6.80;;;;;;;22.50;43.50;99671.30;1715086;84;21019;-79
2024/04/01 09:39:01;;;;;;;33.48;6.78;;;;;;;22.52;43.71;99663.45;1714985;84;21063;-79
2024/04/01 09:41:30;;;;;;;30.55;6.67;;;;;;;22.56;43.56;99672.34;1714720;82;21509;-80
2024/04/01 09:43:59;;;;;;;34.03;6.53;;;;;;;22.59;43.22;99665.33;1714591;83;21071;-77
2024/04/01 09:46:27;;;;;;;31.50;6.55;;;;;;;22.64;43.25;99663.89;1714717;84;21073;-78
2024/04/01 09:48:56;;;;;;;24.98;6.47;;;;;;;22.68;43.06;99662.16;1687235;84;21054;-79
2024/04/01 09:51:24;;;;;;;37.17;6.55;;;;;;;22.69;43.38;99652.66;1714691;84;21031;-79
2024/04/01 09:53:53;;;;;;;31.80;6.87;;;;;;;22.74;43.26;99653.44;1714664;84;21035;-79
2024/04/01 09:56:49;;;;;;;38.10;7.40;;;;;;;22.82;43.60;99651.19;1714600;82;21031;-75
2024/04/01 09:59:46;;;;;;;34.50;6.65;;;;;;;22.90;43.92;99645.78;1714707;84;21082;-80
2024/04/01 10:02:55;;;;;;;28.20;6.60;;;;;;;22.98;44.05;99651.27;1707095;82;22028;-79
2024/04/01 10:06:01;;;;;;;29.95;6.20;;;;;;;22.99;44.02;99655.73;1714674;83;21023;-79
2024/04/01 10:08:51;;;;;;;26.50;6.17;;;;;;;22.98;43.95;99650.70;1714676;83;21122;-77
2024/04/01 10:11:48;;;;;;;32.08;6.80;;;;;;;22.96;44.08;99643.19;1709286;84;21099;-80
2024/04/01 10:14:41;;;;;;;34.35;7.12;;;;;;;22.95;44.18;99643.48;1709238;84;21336;-80
2024/04/01 10:17:24;;;;;;;33.73;6.25;;;;;;;22.98;44.08;99642.33;1704091;84;21088;-79
2024/04/01 10:20:09;;;;;;;33.63;6.45;;;;;;;23.02;44.05;99635.01;1704100;83;21052;-80
2024/04/01 10:22:55;;;;;;;30.17;6.30;;;;;;;23.04;44.13;99625.77;1702691;83;21012;-80
2024/04/01 10:26:15;;;;;;;29.05;6.20;;;;;;;23.07;43.93;99618.18;1704144;84;21073;-80
2024/04/01 10:29:11;;;;;;;28.12;6.33;;;;;;;23.13;44.03;99619.51;1704076;84;21083;-81
2024/04/01 10:32:00;;;;;;;32.63;6.80;;;;;;;23.18;43.84;99617.48;1676146;84;21496;-79
2024/04/01 10:34:56;;;;;;;32.40;6.97;;;;;;;23.25;43.67;99612.91;1704008;83;21044;-80
2024/04/01 10:37:34;;;;;;;33.05;6.75;;;;;;;23.27;43.00;99619.87;1698142;84;21337;-79
2024/04/01 10:40:38;;;;;;;40.63;6.97;;;;;;;23.24;43.20;99609.85;1666244;84;21072;-79
2024/04/01 10:43:15;;;;;;;32.60;7.17;;;;;;;23.22;43.16;99598.14;1698617;84;21541;-78
2024/04/01 10:46:35;;;;;;;29.50;6.53;;;;;;;23.22;43.03;99605.95;1698673;84;21056;-79
2024/04/01 10:49:35;;;;;;;34.33;6.47;;;;;;;23.23;43.22;99603.43;1698598;84;21465;-73
2024/04/01 10:52:22;;;;;;;36.88;6.60;;;;;;;23.25;43.31;99609.55;1698623;84;21092;-76
2024/04/01 10:55:06;;;;;;;33.25;5.92;;;;;;;23.30;43.15;99605.28;1698482;84;21044;-73
2024/04/01 10:58:04;;;;;;;37.42;7.08;;;;;;;23.34;43.14;99605.52;1702263;84;21051;-76
2024/04/01 11:00:48;;;;;;;35.83;6.47;;;;;;;23.36;42.72;99603.25;1708270;84;21032;-75
2024/04/01 11:03:48;;;;;;;36.80;7.30;;;;;;;23.33;42.78;99600.49;1682200;85;21014;-76
2024/04/01 11:06:50;;;;;;;36.25;8.00;;;;;;;23.33;42.74;99599.09;1697294;84;21127;-75
2024/04/01 11:09:46;;;;;;;26.27;6.15;;;;;;;23.39;42.60;99594.26;1707541;84;21090;-77
2024/04/01 11:12:37;;;;;;;32.35;7.10;;;;;;;23.45;42.57;99593.64;1681053;85;21074;-80
2024/04/01 11:15:09;;;;;;;38.73;6.78;;;;;;;23.50;41.95;99600.56;1696095;84;21036;-80
2024/04/01 11:17:37;;;;;;;42.70;7.28;;;;;;;23.52;42.12;99585.70;1707642;84;21505;-78
2024/04/01 11:20:29;;;;;;;29.55;6.20;;;;;;;23.55;41.75;99598.55;1724164;82;21047;-80
2024/04/01 11:23:06;;;;;;;31.07;6.30;;;;;;;23.60;41.44;99600.44;1714352;82;21070;-79
2024/04/01 11:26:11;;;;;;;29.65;6.67;;;;;;;23.59;41.72;99591.78;1738974;82;21004;-80
2024/04/01 11:29:13;;;;;;;38.70;7.28;;;;;;;23.58;41.62;99584.53;1738775;82;21450;-79
2024/04/01 11:31:56;;;;;;;33.10;7.10;;;;;;;23.60;41.86;99585.89;1739307;82;21170;-79
2024/04/01 11:35:10;;;;;;;37.20;7.20;;;;;;;23.69;42.01;99586.86;1829663;77;22247;-80
2024/04/01 11:37:56;;;;;;;36.53;7.15;;;;;;;23.65;41.87;99583.01;1788470;80;21115;-81
2024/04/01 11:40:28;;;;;;;36.25;6.75;;;;;;;23.63;42.13;99577.45;1788681;80;21129;-80
2024/04/01 11:43:05;;;;;;;30.90;7.22;;;;;;;23.58;42.22;99576.14;1788709;80;21123;-80
2024/04/01 11:45:37;;;;;;;36.28;7.55;;;;;;;23.55;42.27;99576.18;1788699;80;21194;-80
2024/04/01 11:48:07;;;;;;;40.50;6.90;;;;;;;23.52;42.38;99569.77;1788656;80;21126;-80